Time;durP1;ratioP1;P1;durP2;ratioP2;P2;SDS_P1;SDS_P2;PMS_P1;PMS_P2;Temp;Humidity;BMP_temperature;BMP_pressure;BME280_temperature;BME280_humidity;BME280_pressure;Samples;Min_cycle;Max_cycle;Signal;HPM_P1;HPM_P2
2022/09/19 00:01:59;;;;;;;6.20;3.73;;;;;;;8.49;100.00;98924.31;5063024;28;20253;-86
2022/09/19 00:04:30;;;;;;;6.97;4.23;;;;;;;8.49;100.00;98929.59;5070054;28;20659;-85
2022/09/19 00:07:01;;;;;;;7.73;4.20;;;;;;;8.56;100.00;98923.00;5069625;28;20197;-86
2022/09/19 00:09:33;;;;;;;6.70;3.90;;;;;;;8.56;100.00;98917.72;5074615;28;20216;-86
2022/09/19 00:12:02;;;;;;;7.57;4.17;;;;;;;8.51;100.00;98925.09;5069035;28;20196;-85
2022/09/19 00:14:33;;;;;;;7.63;4.37;;;;;;;8.54;100.00;98925.75;5070927;28;20204;-85
2022/09/19 00:17:07;;;;;;;7.47;4.00;;;;;;;8.63;100.00;98924.34;5074482;28;20249;-86
2022/09/19 00:19:39;;;;;;;9.17;4.63;;;;;;;8.61;100.00;98926.25;5071766;28;20192;-86
2022/09/19 00:22:09;;;;;;;7.57;4.10;;;;;;;8.63;100.00;98929.63;5068380;28;20278;-85
2022/09/19 00:24:46;;;;;;;9.37;4.63;;;;;;;8.63;100.00;98926.16;5074448;28;20230;-86
2022/09/19 00:27:20;;;;;;;8.63;4.67;;;;;;;8.63;100.00;98939.34;5071866;28;20196;-85
2022/09/19 00:29:49;;;;;;;8.77;4.70;;;;;;;8.70;100.00;98932.75;5075308;28;20208;-86
2022/09/19 00:32:18;;;;;;;10.07;5.27;;;;;;;8.68;100.00;98939.91;5075131;28;20192;-85
2022/09/19 00:34:48;;;;;;;12.40;5.50;;;;;;;8.69;100.00;98934.56;5079410;27;20193;-86
2022/09/19 00:37:19;;;;;;;10.13;5.53;;;;;;;8.79;100.00;98937.50;5070384;28;20208;-86
2022/09/19 00:39:50;;;;;;;8.13;5.33;;;;;;;8.85;100.00;98931.81;5069800;28;20253;-85
2022/09/19 00:42:21;;;;;;;8.40;5.13;;;;;;;8.84;100.00;98946.81;5069227;28;20208;-86
2022/09/19 00:44:59;;;;;;;7.40;5.43;;;;;;;8.88;100.00;98940.44;5073562;28;20196;-86
2022/09/19 00:47:38;;;;;;;13.37;5.27;;;;;;;8.89;100.00;98939.50;5071033;28;20199;-85
2022/09/19 00:50:21;;;;;;;7.63;5.77;;;;;;;8.92;100.00;98940.25;5071822;28;20262;-86
2022/09/19 00:52:53;;;;;;;8.03;5.50;;;;;;;9.03;100.00;98946.56;5069686;28;20216;-86
2022/09/19 00:55:24;;;;;;;9.67;5.43;;;;;;;9.05;100.00;98943.81;4992624;28;20209;-85
2022/09/19 00:58:01;;;;;;;10.27;6.10;;;;;;;9.07;100.00;98952.50;4984439;28;20258;-83
2022/09/19 01:00:31;;;;;;;10.13;5.90;;;;;;;9.05;100.00;98949.94;4984626;28;20195;-83
2022/09/19 01:02:59;;;;;;;9.80;5.70;;;;;;;9.03;100.00;98964.19;4982718;28;20241;-84
2022/09/19 01:05:33;;;;;;;9.30;5.53;;;;;;;9.14;100.00;98964.41;4981433;28;20309;-86
2022/09/19 01:08:22;;;;;;;9.80;5.53;;;;;;;9.19;100.00;98957.03;4988963;28;20195;-83
2022/09/19 01:11:12;;;;;;;11.50;5.90;;;;;;;9.20;100.00;98956.09;4985151;28;20811;-85
2022/09/19 01:13:53;;;;;;;9.93;5.90;;;;;;;9.07;100.00;98960.41;4966944;28;20660;-86
2022/09/19 01:16:32;;;;;;;11.33;5.50;;;;;;;9.14;100.00;98959.94;5025693;28;20193;-86
2022/09/19 01:19:19;;;;;;;9.73;5.63;;;;;;;9.17;100.00;98969.50;5033242;28;20336;-85
2022/09/19 01:22:00;;;;;;;12.43;5.90;;;;;;;9.04;100.00;98969.38;5068418;28;20196;-85
2022/09/19 01:25:00;;;;;;;11.37;5.50;;;;;;;8.99;100.00;98966.19;5070700;28;20237;-86
2022/09/19 01:28:06;;;;;;;7.90;5.77;;;;;;;8.92;100.00;98977.22;5018175;28;20213;-87
2022/09/19 01:30:38;;;;;;;8.13;5.73;;;;;;;8.98;100.00;98985.63;5029985;28;20245;-86
2022/09/19 01:33:17;;;;;;;11.53;6.40;;;;;;;9.08;100.00;98985.91;5027760;28;20194;-86
2022/09/19 01:35:52;;;;;;;8.90;5.80;;;;;;;9.17;100.00;98986.22;5026212;28;20194;-85
2022/09/19 01:38:25;;;;;;;12.30;6.83;;;;;;;9.30;100.00;98998.66;5028315;28;20320;-85
2022/09/19 01:40:55;;;;;;;10.23;5.70;;;;;;;9.37;100.00;99005.28;4977646;28;20235;-83
2022/09/19 01:43:25;;;;;;;13.53;6.47;;;;;;;9.28;100.00;98997.91;5027460;28;20193;-85
2022/09/19 01:46:02;;;;;;;12.17;5.93;;;;;;;9.35;100.00;99000.06;5025148;28;20263;-85
2022/09/19 01:48:40;;;;;;;11.13;6.30;;;;;;;9.36;100.00;98993.88;5030134;28;20205;-85
2022/09/19 01:51:23;;;;;;;9.30;5.27;;;;;;;9.34;100.00;98990.44;5027498;28;20249;-85
2022/09/19 01:54:07;;;;;;;11.83;6.17;;;;;;;9.34;100.00;98990.44;5066655;28;20257;-85
2022/09/19 01:56:44;;;;;;;13.47;5.70;;;;;;;9.31;100.00;98993.28;5070878;28;20226;-86
2022/09/19 01:59:32;;;;;;;12.13;5.90;;;;;;;9.28;100.00;99004.06;5069615;28;20223;-85
2022/09/19 02:02:17;;;;;;;9.67;6.13;;;;;;;9.37;100.00;99000.00;5030677;28;20208;-85
2022/09/19 02:04:50;;;;;;;10.90;6.00;;;;;;;9.40;100.00;98999.78;5028154;28;20206;-86
2022/09/19 02:07:27;;;;;;;13.20;6.37;;;;;;;9.28;100.00;98990.00;5023603;28;20255;-86
2022/09/19 02:10:02;;;;;;;9.33;5.20;;;;;;;9.37;100.00;99006.13;5023371;28;20368;-85
2022/09/19 02:12:33;;;;;;;11.93;6.90;;;;;;;9.37;100.00;99000.00;5026029;28;20223;-85
2022/09/19 02:15:07;;;;;;;12.23;6.07;;;;;;;9.32;100.00;99000.25;5022025;28;20271;-85
2022/09/19 02:17:44;;;;;;;10.03;5.37;;;;;;;9.29;100.00;99007.53;5023206;28;20224;-85
2022/09/19 02:20:17;;;;;;;10.30;5.67;;;;;;;9.25;100.00;99004.22;5045185;28;20216;-85
2022/09/19 02:22:51;;;;;;;10.13;5.10;;;;;;;9.27;100.00;99002.34;5071786;28;20271;-85
2022/09/19 02:25:23;;;;;;;11.07;5.70;;;;;;;9.18;100.00;99011.69;5074081;28;20643;-85
2022/09/19 02:27:59;;;;;;;13.33;5.90;;;;;;;9.25;100.00;99017.44;5074928;28;20196;-85
2022/09/19 02:30:32;;;;;;;9.83;5.60;;;;;;;9.26;100.00;99019.13;5073946;28;20195;-85
2022/09/19 02:33:07;;;;;;;10.23;5.37;;;;;;;9.27;100.00;99030.56;5074386;28;20193;-85
2022/09/19 02:35:43;;;;;;;9.87;5.87;;;;;;;9.26;100.00;99026.19;5071736;28;20227;-85
2022/09/19 02:38:22;;;;;;;8.10;6.03;;;;;;;9.26;100.00;99021.78;5069541;28;20237;-84
2022/09/19 02:40:57;;;;;;;9.63;5.70;;;;;;;9.33;100.00;99035.47;5069065;28;20198;-85
2022/09/19 02:43:36;;;;;;;9.87;5.80;;;;;;;9.35;100.00;99033.56;5076820;28;20189;-85
2022/09/19 02:46:09;;;;;;;9.47;5.97;;;;;;;9.31;100.00;99032.94;5076041;28;20200;-85
2022/09/19 02:48:50;;;;;;;8.63;6.13;;;;;;;9.29;100.00;99037.47;5074007;28;20306;-85
2022/09/19 02:51:24;;;;;;;14.60;6.30;;;;;;;9.29;100.00;99036.63;5071148;28;20242;-86
2022/09/19 02:53:58;;;;;;;12.03;5.70;;;;;;;9.21;100.00;99031.78;5068870;28;20206;-85
2022/09/19 02:56:33;;;;;;;14.50;6.57;;;;;;;9.18;100.00;99037.25;5072843;28;20204;-85
2022/09/19 02:59:07;;;;;;;11.60;6.40;;;;;;;9.09;100.00;99038.66;5073776;28;20238;-85
2022/09/19 03:01:40;;;;;;;12.30;7.00;;;;;;;9.12;100.00;99046.41;5071962;28;20196;-85
2022/09/19 03:04:14;;;;;;;10.10;6.30;;;;;;;9.20;100.00;99047.72;5070080;28;20655;-85
2022/09/19 03:06:54;;;;;;;12.23;6.90;;;;;;;9.25;100.00;99046.50;5074684;28;20197;-85
2022/09/19 03:09:26;;;;;;;10.20;6.67;;;;;;;9.36;100.00;99057.31;5068993;28;20196;-85
2022/09/19 03:12:00;;;;;;;13.60;6.50;;;;;;;9.30;100.00;99052.38;5074020;28;20220;-85
2022/09/19 03:14:31;;;;;;;12.20;6.67;;;;;;;9.31;100.00;99069.06;5094709;28;20176;-85
2022/09/19 03:17:03;;;;;;;14.07;6.77;;;;;;;9.38;100.00;99068.63;5083356;28;20226;-85
2022/09/19 03:19:33;;;;;;;14.43;7.23;;;;;;;9.43;100.00;99071.81;5072746;28;20261;-85
2022/09/19 03:22:01;;;;;;;13.30;7.33;;;;;;;9.46;100.00;99079.59;5050654;28;20565;-85
2022/09/19 03:24:29;;;;;;;11.00;6.43;;;;;;;9.49;100.00;99077.69;5048435;28;20414;-85
2022/09/19 03:26:58;;;;;;;10.27;6.23;;;;;;;9.54;100.00;99079.09;5050444;28;20220;-85
2022/09/19 03:29:27;;;;;;;15.67;7.10;;;;;;;9.57;100.00;99080.72;5046664;28;20732;-85
2022/09/19 03:31:57;;;;;;;12.30;6.93;;;;;;;9.55;100.00;99082.59;5049684;28;20331;-85
2022/09/19 03:34:32;;;;;;;16.37;7.10;;;;;;;9.48;100.00;99082.13;5044896;28;20292;-85
2022/09/19 03:37:00;;;;;;;15.13;7.47;;;;;;;9.46;100.00;99073.44;5046782;28;20427;-85
2022/09/19 03:39:30;;;;;;;13.10;7.37;;;;;;;9.48;100.00;99084.78;4979739;28;20226;-85
2022/09/19 03:42:00;;;;;;;15.77;7.27;;;;;;;9.53;100.00;99097.69;5013737;28;20191;-85
2022/09/19 03:44:28;;;;;;;13.20;6.63;;;;;;;9.55;100.00;99094.00;5011129;28;20201;-85
2022/09/19 03:47:00;;;;;;;12.93;7.07;;;;;;;9.62;100.00;99095.34;5010306;28;20226;-85
2022/09/19 03:49:30;;;;;;;15.60;7.60;;;;;;;9.64;100.00;99104.03;5009161;28;20270;-86
2022/09/19 03:51:59;;;;;;;14.10;6.97;;;;;;;9.65;100.00;99107.53;5008876;28;20229;-83
2022/09/19 03:54:27;;;;;;;15.67;6.80;;;;;;;9.65;100.00;99100.47;4975652;28;20196;-86
2022/09/19 03:56:56;;;;;;;12.30;6.00;;;;;;;9.63;100.00;99099.69;4960262;28;20195;-85
2022/09/19 03:59:25;;;;;;;12.27;6.37;;;;;;;9.64;100.00;99097.88;5009250;28;20194;-85
2022/09/19 04:01:54;;;;;;;18.40;7.40;;;;;;;9.68;100.00;99108.22;5013199;28;20194;-82
2022/09/19 04:04:25;;;;;;;11.83;7.17;;;;;;;9.72;100.00;99114.16;5033818;28;20189;-83
2022/09/19 04:06:55;;;;;;;11.23;6.77;;;;;;;9.77;100.00;99116.53;5043372;28;20228;-85
2022/09/19 04:09:25;;;;;;;13.17;7.13;;;;;;;9.75;100.00;99130.69;5044052;28;20207;-83
2022/09/19 04:11:55;;;;;;;19.43;7.80;;;;;;;9.73;100.00;99119.34;5050962;28;20215;-83
2022/09/19 04:14:23;;;;;;;14.33;7.23;;;;;;;9.74;100.00;99121.03;5069894;28;20218;-83
2022/09/19 04:16:54;;;;;;;13.70;6.97;;;;;;;9.83;100.00;99130.19;5074066;28;20192;-82
2022/09/19 04:19:42;;;;;;;15.97;7.40;;;;;;;9.73;100.00;99129.06;5075016;28;20204;-85
2022/09/19 04:22:13;;;;;;;12.37;6.60;;;;;;;9.80;100.00;99125.13;5030672;28;20635;-83
2022/09/19 04:24:43;;;;;;;16.07;6.80;;;;;;;9.70;100.00;99129.25;5072153;28;20257;-82
2022/09/19 04:27:13;;;;;;;12.43;6.53;;;;;;;9.77;100.00;99129.75;5051673;28;20197;-83
2022/09/19 04:29:47;;;;;;;18.67;6.97;;;;;;;9.86;100.00;99132.69;5052906;28;21087;-83
2022/09/19 04:32:17;;;;;;;15.63;6.77;;;;;;;9.86;100.00;99142.41;5015198;28;20743;-83
2022/09/19 04:34:47;;;;;;;14.07;6.70;;;;;;;9.89;100.00;99139.56;5007764;28;20226;-86
2022/09/19 04:37:17;;;;;;;15.10;6.83;;;;;;;9.85;100.00;99141.56;5006828;28;20213;-84
2022/09/19 04:39:48;;;;;;;12.27;6.97;;;;;;;9.90;100.00;99141.28;5012759;28;20194;-84
2022/09/19 04:42:16;;;;;;;13.73;6.63;;;;;;;9.97;100.00;99151.38;5007537;28;20202;-86
2022/09/19 04:44:46;;;;;;;13.83;6.57;;;;;;;10.01;100.00;99147.59;5012155;28;20186;-85
2022/09/19 04:47:15;;;;;;;13.83;6.50;;;;;;;10.01;100.00;99144.09;5026208;28;20357;-83
2022/09/19 04:49:43;;;;;;;13.50;7.70;;;;;;;9.88;100.00;99137.88;5040572;28;20235;-85
2022/09/19 04:52:16;;;;;;;14.03;6.83;;;;;;;9.80;100.00;99146.28;5068908;28;20254;-85
2022/09/19 04:54:47;;;;;;;16.30;6.77;;;;;;;9.77;100.00;99153.56;5074132;28;20202;-85
2022/09/19 04:57:15;;;;;;;15.87;7.20;;;;;;;9.79;100.00;99152.50;5070026;28;20238;-84
2022/09/19 04:59:44;;;;;;;15.17;6.70;;;;;;;9.82;100.00;99143.53;5073333;28;20196;-83
2022/09/19 05:02:14;;;;;;;13.23;6.60;;;;;;;9.82;100.00;99156.75;5025455;28;20243;-83
2022/09/19 05:04:44;;;;;;;16.63;6.73;;;;;;;9.81;100.00;99163.84;5022205;28;20672;-83
2022/09/19 05:07:13;;;;;;;14.33;6.87;;;;;;;9.89;100.00;99160.75;5021744;28;20228;-86
2022/09/19 05:09:43;;;;;;;14.97;7.07;;;;;;;9.95;100.00;99170.97;5022950;28;20230;-83
2022/09/19 05:12:12;;;;;;;13.27;6.63;;;;;;;9.82;100.00;99168.19;5025262;28;20213;-83
2022/09/19 05:14:41;;;;;;;13.47;6.07;;;;;;;9.85;100.00;99177.75;5028174;28;20208;-84
2022/09/19 05:17:09;;;;;;;13.47;6.57;;;;;;;9.75;100.00;99180.09;5024791;28;20221;-83
2022/09/19 05:19:37;;;;;;;14.53;6.47;;;;;;;9.78;100.00;99189.63;5028597;28;20484;-83
2022/09/19 05:22:07;;;;;;;11.93;6.90;;;;;;;9.87;100.00;99189.94;5072248;28;20204;-86
2022/09/19 05:24:37;;;;;;;14.17;6.67;;;;;;;9.77;100.00;99195.88;5066184;28;20196;-85
2022/09/19 05:27:06;;;;;;;10.73;6.77;;;;;;;9.71;100.00;99197.09;5067344;28;20219;-85
2022/09/19 05:29:39;;;;;;;13.93;7.23;;;;;;;9.72;100.00;99193.50;5068742;28;20204;-85
2022/09/19 05:32:07;;;;;;;12.30;6.63;;;;;;;9.87;100.00;99203.16;5072650;28;20199;-85
2022/09/19 05:34:36;;;;;;;14.50;7.67;;;;;;;9.83;100.00;99203.44;5073106;28;20192;-85
2022/09/19 05:37:05;;;;;;;14.03;7.20;;;;;;;9.81;100.00;99202.66;5066207;28;20223;-85
2022/09/19 05:39:34;;;;;;;12.70;7.40;;;;;;;9.80;100.00;99201.81;5068153;28;20237;-84
2022/09/19 05:42:09;;;;;;;12.07;6.20;;;;;;;9.80;100.00;99201.81;5072400;28;20184;-83
2022/09/19 05:44:39;;;;;;;12.57;7.17;;;;;;;9.70;100.00;99198.88;5073068;28;20198;-85
2022/09/19 05:47:07;;;;;;;10.50;6.73;;;;;;;9.78;100.00;99198.44;5070480;28;20242;-85
2022/09/19 05:49:39;;;;;;;11.73;7.10;;;;;;;9.64;100.00;99211.59;5069176;28;20220;-85
2022/09/19 05:54:49;;;;;;;10.43;7.23;;;;;;;9.64;100.00;99217.75;5048870;28;20239;-83
2022/09/19 05:57:18;;;;;;;16.67;7.27;;;;;;;9.74;100.00;99220.69;5047855;28;20239;-83
2022/09/19 05:59:48;;;;;;;14.07;8.17;;;;;;;9.75;100.00;99212.69;5044578;28;20197;-85
2022/09/19 06:02:16;;;;;;;15.83;8.13;;;;;;;9.77;100.00;99225.81;5039952;28;20239;-86
2022/09/19 06:04:45;;;;;;;15.07;7.30;;;;;;;9.73;100.00;99230.41;5042441;28;20201;-84
2022/09/19 06:07:14;;;;;;;13.57;7.70;;;;;;;9.71;100.00;99237.59;4988432;28;20238;-85
2022/09/19 06:09:43;;;;;;;13.87;7.27;;;;;;;9.78;100.00;99242.53;5002095;28;20190;-85
2022/09/19 06:12:13;;;;;;;12.00;8.10;;;;;;;9.79;100.00;99242.44;5027100;28;20217;-83
2022/09/19 06:14:42;;;;;;;14.60;7.50;;;;;;;9.85;100.00;99238.59;5028000;28;20213;-83
2022/09/19 06:17:16;;;;;;;12.20;7.87;;;;;;;9.89;100.00;99243.59;5024265;28;20198;-86
2022/09/19 06:19:45;;;;;;;16.27;8.43;;;;;;;9.97;100.00;99249.28;5030318;28;20677;-84
2022/09/19 06:22:15;;;;;;;15.03;8.57;;;;;;;10.04;100.00;99244.50;5024671;28;20190;-87
2022/09/19 06:24:43;;;;;;;15.17;8.50;;;;;;;9.91;100.00;99248.78;4968769;28;20200;-84
2022/09/19 06:27:14;;;;;;;16.57;8.43;;;;;;;10.00;100.00;99249.09;4969519;28;20223;-84
2022/09/19 06:29:42;;;;;;;12.40;8.30;;;;;;;9.97;100.00;99246.63;4970494;28;20227;-84
2022/09/19 06:32:11;;;;;;;12.03;8.37;;;;;;;10.06;100.00;99252.31;4988079;28;20194;-84
2022/09/19 06:34:42;;;;;;;12.33;8.70;;;;;;;9.94;100.00;99256.53;4990356;28;20289;-84
2022/09/19 06:37:25;;;;;;;14.43;8.17;;;;;;;9.95;100.00;99256.47;5007164;28;20199;-85
2022/09/19 06:39:53;;;;;;;14.60;7.80;;;;;;;10.07;100.00;99251.38;5005800;28;20190;-85
2022/09/19 06:42:22;;;;;;;13.17;8.17;;;;;;;9.83;100.00;99248.41;5011247;28;20218;-85
2022/09/19 06:44:56;;;;;;;10.07;8.03;;;;;;;10.00;100.00;99243.81;5010695;28;20246;-85
2022/09/19 06:47:24;;;;;;;13.47;8.20;;;;;;;10.14;100.00;99248.28;5005781;28;20258;-84
2022/09/19 06:50:00;;;;;;;19.67;7.87;;;;;;;10.19;100.00;99259.41;5013607;28;20749;-84
2022/09/19 06:52:29;;;;;;;11.80;8.07;;;;;;;10.36;100.00;99263.72;5029343;28;20553;-85
2022/09/19 06:54:59;;;;;;;13.60;8.03;;;;;;;10.55;100.00;99260.78;5033973;28;20268;-85
2022/09/19 06:57:27;;;;;;;10.73;7.73;;;;;;;10.60;100.00;99264.00;5060805;28;20208;-85
2022/09/19 06:59:57;;;;;;;12.67;8.20;;;;;;;10.52;100.00;99266.28;5065901;28;20203;-84
2022/09/19 07:02:25;;;;;;;14.17;8.17;;;;;;;10.66;100.00;99273.38;5070275;28;20188;-84
2022/09/19 07:04:56;;;;;;;15.43;8.10;;;;;;;10.88;100.00;99269.25;5072340;28;20283;-84
2022/09/19 07:07:25;;;;;;;14.97;7.57;;;;;;;10.97;100.00;99272.28;5064054;28;20196;-84
2022/09/19 07:09:55;;;;;;;12.37;7.97;;;;;;;10.99;100.00;99276.53;5069099;28;20188;-84
2022/09/19 07:12:25;;;;;;;12.93;7.73;;;;;;;10.85;100.00;99274.75;5071095;28;20188;-84
2022/09/19 07:14:54;;;;;;;11.97;7.53;;;;;;;11.02;100.00;99286.94;5071991;28;20212;-84
2022/09/19 07:17:27;;;;;;;14.00;7.20;;;;;;;11.08;100.00;99285.69;5074420;28;20200;-84
2022/09/19 07:20:00;;;;;;;12.63;7.70;;;;;;;11.09;100.00;99280.28;5072400;28;20192;-84
2022/09/19 07:22:29;;;;;;;10.27;6.93;;;;;;;11.22;100.00;99285.66;5072374;28;20185;-84
2022/09/19 07:24:58;;;;;;;14.03;7.50;;;;;;;11.21;100.00;99281.31;5073208;28;20254;-84
2022/09/19 07:27:27;;;;;;;13.47;7.03;;;;;;;11.30;100.00;99293.13;5076002;28;20192;-83
2022/09/19 07:29:56;;;;;;;13.60;6.83;;;;;;;11.36;100.00;99290.06;5050688;28;20254;-83
2022/09/19 07:32:24;;;;;;;11.40;7.07;;;;;;;11.53;100.00;99289.81;5064660;28;20664;-84
2022/09/19 07:34:53;;;;;;;13.63;6.73;;;;;;;11.51;100.00;99296.19;5030797;28;20218;-83
2022/09/19 07:37:23;;;;;;;10.73;6.47;;;;;;;11.64;100.00;99303.22;5024043;28;20309;-84
2022/09/19 07:39:56;;;;;;;12.77;6.90;;;;;;;11.64;100.00;99299.72;4984948;28;20197;-84
2022/09/19 07:42:39;;;;;;;11.80;6.60;;;;;;;11.57;100.00;99301.91;5033101;28;20197;-83
2022/09/19 07:45:08;;;;;;;13.40;6.83;;;;;;;11.62;100.00;99296.31;5028106;28;20189;-83
2022/09/19 07:47:43;;;;;;;9.70;6.40;;;;;;;11.81;100.00;99295.97;5017217;28;20209;-84
2022/09/19 07:50:16;;;;;;;9.47;6.37;;;;;;;11.61;100.00;99300.78;5032922;28;20217;-82
2022/09/19 07:52:47;;;;;;;14.37;6.87;;;;;;;11.66;100.00;99285.38;5041846;28;20196;-85
2022/09/19 07:55:17;;;;;;;14.23;7.00;;;;;;;11.81;100.00;99296.84;5068124;28;20599;-85
2022/09/19 07:57:52;;;;;;;11.17;6.70;;;;;;;11.69;100.00;99302.94;5069036;28;20236;-84
2022/09/19 08:00:22;;;;;;;14.37;7.10;;;;;;;11.70;100.00;99301.97;5075305;28;20188;-84
2022/09/19 08:02:56;;;;;;;11.43;7.30;;;;;;;11.88;100.00;99308.75;5027893;28;20691;-83
2022/09/19 08:05:29;;;;;;;12.13;7.53;;;;;;;11.84;100.00;99307.22;5028973;28;20247;-84
2022/09/19 08:07:59;;;;;;;13.17;7.03;;;;;;;11.90;100.00;99313.94;5026176;28;20206;-84
2022/09/19 08:10:30;;;;;;;9.37;6.50;;;;;;;11.78;100.00;99297.00;5027727;28;20255;-84
2022/09/19 08:13:00;;;;;;;11.10;6.63;;;;;;;11.66;100.00;99317.22;5027440;28;20221;-85
2022/09/19 08:15:28;;;;;;;13.23;6.80;;;;;;;11.75;100.00;99318.44;5027534;28;20388;-85
2022/09/19 08:17:58;;;;;;;7.97;6.30;;;;;;;11.65;100.00;99330.59;5028389;28;20224;-85
2022/09/19 08:20:28;;;;;;;9.70;6.77;;;;;;;11.84;100.00;99325.81;5039386;28;20220;-85
2022/09/19 08:23:01;;;;;;;9.90;7.50;;;;;;;11.91;100.00;99326.25;5070874;28;20190;-86
2022/09/19 08:25:32;;;;;;;13.43;6.57;;;;;;;11.81;100.00;99331.34;5074476;28;20249;-86
2022/09/19 08:28:03;;;;;;;7.57;5.67;;;;;;;11.78;100.00;99333.31;5074319;28;20599;-86
2022/09/19 08:30:34;;;;;;;9.73;6.27;;;;;;;11.83;100.00;99341.84;5069702;28;20220;-85
2022/09/19 08:33:03;;;;;;;9.60;5.90;;;;;;;11.83;100.00;99336.53;5067719;28;20197;-85
2022/09/19 08:35:37;;;;;;;8.87;6.40;;;;;;;11.80;100.00;99336.75;5034588;28;20278;-85
2022/09/19 08:38:10;;;;;;;11.37;6.17;;;;;;;11.82;100.00;99334.84;5072163;28;20195;-86
2022/09/19 08:40:52;;;;;;;11.40;6.30;;;;;;;11.95;100.00;99341.88;5071965;28;20192;-86
2022/09/19 08:43:28;;;;;;;8.53;5.80;;;;;;;12.09;100.00;99343.63;5073834;28;20288;-86
2022/09/19 08:46:10;;;;;;;9.07;5.80;;;;;;;12.25;100.00;99356.69;5076116;28;20200;-85
2022/09/19 08:48:51;;;;;;;8.83;5.07;;;;;;;12.33;100.00;99344.59;5069694;28;20200;-85
2022/09/19 08:51:24;;;;;;;8.37;5.30;;;;;;;12.57;100.00;99338.56;5071270;28;20709;-83
2022/09/19 08:54:03;;;;;;;7.87;5.53;;;;;;;12.51;100.00;99334.50;5070867;28;20200;-85
2022/09/19 08:56:32;;;;;;;6.97;5.13;;;;;;;12.39;100.00;99353.13;5069795;28;20233;-83
2022/09/19 08:59:05;;;;;;;7.80;5.50;;;;;;;12.39;100.00;99345.16;5039049;28;20226;-83
2022/09/19 09:01:38;;;;;;;6.93;5.00;;;;;;;12.38;100.00;99348.75;5015344;28;20724;-83
2022/09/19 09:04:19;;;;;;;8.13;5.00;;;;;;;12.33;100.00;99339.28;5047993;28;20193;-82
2022/09/19 09:07:01;;;;;;;5.57;4.87;;;;;;;12.65;100.00;99340.69;5043099;28;20208;-83
2022/09/19 09:09:45;;;;;;;7.57;4.33;;;;;;;12.79;100.00;99340.56;5048952;28;20231;-84
2022/09/19 09:12:31;;;;;;;6.43;4.83;;;;;;;12.98;100.00;99348.09;5044284;28;20200;-83
2022/09/19 09:15:10;;;;;;;7.87;4.50;;;;;;;12.70;100.00;99342.06;5046223;28;20244;-84
2022/09/19 09:18:21;;;;;;;6.17;4.40;;;;;;;12.79;100.00;99343.22;5051409;28;20189;-84
2022/09/19 09:20:54;;;;;;;7.03;4.57;;;;;;;12.80;100.00;99345.78;5069497;28;20527;-84
2022/09/19 09:23:28;;;;;;;8.47;4.10;;;;;;;12.81;100.00;99341.31;5069432;28;20307;-85
2022/09/19 09:26:02;;;;;;;6.60;3.57;;;;;;;12.90;100.00;99345.97;5067570;28;20242;-85
2022/09/19 09:28:39;;;;;;;6.33;3.90;;;;;;;12.86;100.00;99349.81;5073086;28;20230;-85
2022/09/19 09:31:19;;;;;;;4.07;3.67;;;;;;;12.89;100.00;99339.81;5073504;28;20195;-85
2022/09/19 09:33:56;;;;;;;5.40;3.30;;;;;;;12.73;100.00;99351.63;5070094;28;20254;-85
2022/09/19 09:36:31;;;;;;;6.13;3.00;;;;;;;12.85;100.00;99348.97;5073199;28;20216;-85
2022/09/19 09:39:11;;;;;;;4.47;2.87;;;;;;;13.00;100.00;99341.72;5067446;28;20204;-85
2022/09/19 09:41:50;;;;;;;6.83;3.27;;;;;;;13.15;100.00;99337.97;5071253;28;20242;-85
2022/09/19 09:44:47;;;;;;;6.50;2.90;;;;;;;13.13;100.00;99331.06;5071514;28;20196;-85
2022/09/19 09:47:30;;;;;;;3.60;3.13;;;;;;;13.03;100.00;99340.66;5069779;28;20204;-85
2022/09/19 09:50:26;;;;;;;4.90;3.00;;;;;;;13.22;100.00;99342.84;5070618;28;20258;-84
2022/09/19 09:53:03;;;;;;;4.43;3.20;;;;;;;13.43;100.00;99351.97;5069212;28;20318;-84
2022/09/19 09:58:42;;;;;;;5.83;3.50;;;;;;;13.75;100.00;99347.78;5073152;28;20220;-84
2022/09/19 10:04:30;;;;;;;6.27;3.20;;;;;;;13.91;100.00;99328.88;5072830;28;20195;-84
2022/09/19 10:07:24;;;;;;;7.03;3.20;;;;;;;13.79;100.00;99329.75;5071671;28;20661;-84
2022/09/19 10:09:57;;;;;;;6.37;3.50;;;;;;;13.69;100.00;99324.28;5071430;28;20221;-84
2022/09/19 10:12:28;;;;;;;5.80;3.03;;;;;;;13.63;100.00;99322.09;5075395;28;20360;-84
2022/09/19 10:15:23;;;;;;;6.80;3.40;;;;;;;13.61;100.00;99320.50;5072890;28;20223;-84
2022/09/19 10:18:05;;;;;;;5.47;3.27;;;;;;;13.77;100.00;99313.06;5064805;28;20277;-84
2022/09/19 10:20:39;;;;;;;7.03;3.73;;;;;;;13.73;100.00;99330.25;5054280;28;20200;-84
2022/09/19 10:23:16;;;;;;;6.73;3.57;;;;;;;13.85;100.00;99316.00;5071877;28;20196;-83
2022/09/19 10:25:45;;;;;;;7.37;3.63;;;;;;;13.78;100.00;99317.41;5071267;28;20715;-83
2022/09/19 10:28:24;;;;;;;6.93;3.10;;;;;;;14.14;100.00;99308.47;5070401;28;20200;-83
2022/09/19 10:30:59;;;;;;;6.20;3.00;;;;;;;14.70;100.00;99307.75;5073743;28;20279;-83
2022/09/19 10:33:38;;;;;;;6.57;3.00;;;;;;;15.15;100.00;99304.09;5069150;28;20281;-84
2022/09/19 10:36:15;;;;;;;6.53;3.33;;;;;;;15.54;100.00;99293.84;5073167;28;20224;-83
2022/09/19 10:38:49;;;;;;;4.17;2.30;;;;;;;15.66;100.00;99292.84;5063721;28;20265;-83
2022/09/19 10:41:22;;;;;;;3.40;2.10;;;;;;;15.49;100.00;99295.16;5071885;28;20207;-84
2022/09/19 10:43:52;;;;;;;5.70;2.73;;;;;;;15.45;100.00;99286.56;5071574;28;20204;-84
2022/09/19 10:46:35;;;;;;;5.70;2.50;;;;;;;15.47;100.00;99287.28;5079454;28;20255;-83
2022/09/19 10:49:18;;;;;;;5.00;2.60;;;;;;;15.40;100.00;99296.75;5075285;28;20255;-84
2022/09/19 10:51:50;;;;;;;5.43;2.70;;;;;;;15.43;100.00;99291.16;5073537;28;20200;-84
2022/09/19 10:54:32;;;;;;;7.50;3.33;;;;;;;15.41;100.00;99295.78;5074544;28;20230;-84
2022/09/19 10:57:01;;;;;;;7.67;3.20;;;;;;;15.21;100.00;99297.41;5070843;28;20227;-84
2022/09/19 10:59:36;;;;;;;6.57;3.10;;;;;;;15.31;100.00;99287.69;5076281;28;20196;-84
2022/09/19 11:02:20;;;;;;;6.03;3.13;;;;;;;15.33;100.00;99290.22;5077668;28;20219;-83
2022/09/19 11:05:00;;;;;;;9.73;3.33;;;;;;;15.21;100.00;99289.41;5076164;28;20200;-83
2022/09/19 11:07:33;;;;;;;7.43;2.97;;;;;;;15.26;100.00;99292.56;5054046;28;20188;-84
2022/09/19 11:10:09;;;;;;;7.10;3.30;;;;;;;15.07;100.00;99282.53;5053979;28;20263;-83
2022/09/19 11:12:41;;;;;;;6.77;3.20;;;;;;;14.74;100.00;99282.53;5055510;28;20221;-84
2022/09/19 11:15:15;;;;;;;6.90;2.53;;;;;;;14.81;100.00;99287.28;5049781;28;20193;-83
2022/09/19 11:18:02;;;;;;;5.93;2.40;;;;;;;15.37;100.00;99278.34;5050070;28;20200;-83
2022/09/19 11:20:42;;;;;;;7.33;2.57;;;;;;;15.25;100.00;99290.88;5051785;28;20674;-83
2022/09/19 11:23:38;;;;;;;6.80;2.60;;;;;;;15.10;100.00;99292.94;5057376;28;20216;-83
2022/09/19 11:26:18;;;;;;;5.93;2.90;;;;;;;15.09;100.00;99285.91;5062243;28;20196;-83
2022/09/19 11:29:02;;;;;;;5.30;2.50;;;;;;;14.95;100.00;99287.97;5085441;28;20200;-83
2022/09/19 11:31:43;;;;;;;6.33;2.40;;;;;;;15.05;100.00;99288.94;5080685;28;20199;-83
2022/09/19 11:34:42;;;;;;;4.90;2.50;;;;;;;15.39;100.00;99282.56;5084946;28;20207;-83
2022/09/19 11:37:45;;;;;;;4.93;2.20;;;;;;;15.72;100.00;99289.63;5080552;28;20248;-83
2022/09/19 11:40:35;;;;;;;7.90;2.77;;;;;;;16.28;100.00;99296.53;5063830;28;20197;-84
2022/09/19 11:43:15;;;;;;;5.47;2.07;;;;;;;16.18;100.00;99284.94;5057885;28;20189;-83
2022/09/19 11:45:56;;;;;;;7.60;2.07;;;;;;;16.56;100.00;99285.16;5052592;28;20211;-83
2022/09/19 11:48:44;;;;;;;7.20;2.10;;;;;;;16.97;100.00;99280.72;5048053;28;20204;-83
2022/09/19 11:51:21;;;;;;;5.37;1.97;;;;;;;16.94;100.00;99296.22;4992248;28;20238;-83
2022/09/19 11:54:04;;;;;;;5.87;2.23;;;;;;;17.05;100.00;99280.03;4988866;28;20194;-84
2022/09/19 11:57:02;;;;;;;4.03;1.97;;;;;;;17.16;100.00;99291.47;4987228;28;20305;-84
2022/09/19 11:59:49;;;;;;;7.13;1.97;;;;;;;17.13;100.00;99283.72;5020541;28;20288;-83
2022/09/19 12:02:46;;;;;;;4.27;1.90;;;;;;;17.43;100.00;99271.25;5030686;28;20202;-86
2022/09/19 12:05:27;;;;;;;4.47;1.70;;;;;;;17.33;100.00;99257.84;5032778;28;20198;-84
2022/09/19 12:08:18;;;;;;;3.93;1.83;;;;;;;17.67;100.00;99250.28;5032876;28;20198;-85